createdAt,value
2022-07-30T00:01:18.435Z,1.83
2022-07-30T00:03:45.581Z,2.13
2022-07-30T00:06:12.718Z,1.70
2022-07-30T00:08:39.806Z,1.95
2022-07-30T00:11:06.952Z,2.35
2022-07-30T00:13:34.119Z,2.28
2022-07-30T00:16:01.376Z,1.88
2022-07-30T00:18:28.451Z,1.60
2022-07-30T00:20:55.578Z,2.30
2022-07-30T00:23:23.615Z,2.20
2022-07-30T00:25:50.809Z,2.25
2022-07-30T00:28:17.882Z,1.70
2022-07-30T00:30:45.129Z,1.80
2022-07-30T00:33:12.280Z,2.08
2022-07-30T00:35:39.754Z,1.92
2022-07-30T00:38:06.852Z,2.08
2022-07-30T00:40:34.039Z,2.00
2022-07-30T00:43:01.245Z,2.08
2022-07-30T00:45:28.562Z,2.10
2022-07-30T00:47:55.771Z,2.10
2022-07-30T00:50:22.967Z,2.35
2022-07-30T00:52:51.102Z,2.30
2022-07-30T00:55:18.337Z,1.70
2022-07-30T00:57:45.481Z,2.63
2022-07-30T01:00:15.654Z,1.88
2022-07-30T01:02:43.427Z,2.10
2022-07-30T01:05:10.809Z,2.45
2022-07-30T01:07:38.174Z,2.65
2022-07-30T01:10:08.564Z,2.25
2022-07-30T01:12:35.929Z,2.60
2022-07-30T01:15:06.846Z,2.35
2022-07-30T01:17:35.417Z,1.95
2022-07-30T01:20:08.404Z,2.60
2022-07-30T01:22:50.447Z,2.10
2022-07-30T01:25:33.523Z,2.20
2022-07-30T01:28:09.130Z,1.90
2022-07-30T01:30:40.412Z,2.13
2022-07-30T01:33:12.002Z,2.20
2022-07-30T01:35:41.778Z,2.50
2022-07-30T01:38:11.379Z,2.00
2022-07-30T01:40:40.006Z,2.55
2022-07-30T01:43:08.922Z,2.17
2022-07-30T01:45:43.981Z,2.20
2022-07-30T01:48:14.814Z,2.08
2022-07-30T01:50:46.001Z,2.33
2022-07-30T01:53:19.121Z,2.38
2022-07-30T01:55:46.814Z,1.67
2022-07-30T01:58:16.669Z,2.20
2022-07-30T02:00:48.644Z,2.17
2022-07-30T02:03:16.072Z,2.35
2022-07-30T02:05:52.330Z,2.10
2022-07-30T02:08:48.648Z,2.67
2022-07-30T02:11:37.872Z,2.30
2022-07-30T02:14:14.363Z,2.88
2022-07-30T02:16:45.026Z,2.20
2022-07-30T02:19:16.054Z,2.08
2022-07-30T02:21:49.680Z,2.38
2022-07-30T02:24:25.877Z,2.30
2022-07-30T02:26:59.753Z,2.75
2022-07-30T02:29:28.099Z,2.45
2022-07-30T02:31:57.860Z,2.10
2022-07-30T02:34:26.773Z,2.25
2022-07-30T02:36:55.612Z,2.08
2022-07-30T02:39:22.836Z,2.10
2022-07-30T02:41:50.702Z,2.00
2022-07-30T02:44:20.203Z,2.17
2022-07-30T02:46:49.801Z,1.95
2022-07-30T02:49:36.961Z,2.33
2022-07-30T02:52:08.890Z,2.03
2022-07-30T02:54:38.903Z,2.08
2022-07-30T02:57:08.288Z,2.72
2022-07-30T02:59:37.792Z,2.47
2022-07-30T03:02:07.618Z,2.10
2022-07-30T03:04:36.422Z,2.40
2022-07-30T03:07:08.444Z,2.88
2022-07-30T03:09:51.006Z,2.60
2022-07-30T03:12:21.342Z,2.40
2022-07-30T03:14:48.535Z,2.50
2022-07-30T03:17:17.233Z,2.65
2022-07-30T03:19:46.608Z,2.58
2022-07-30T03:22:15.302Z,2.60
2022-07-30T03:24:44.338Z,2.55
2022-07-30T03:27:13.858Z,2.28
2022-07-30T03:29:42.006Z,2.50
2022-07-30T03:32:10.544Z,2.58
2022-07-30T03:34:42.517Z,2.47
2022-07-30T03:37:11.941Z,2.40
2022-07-30T03:39:40.717Z,2.72
2022-07-30T03:42:08.807Z,2.72
2022-07-30T03:44:37.843Z,2.20
2022-07-30T03:47:07.230Z,2.72
2022-07-30T03:49:40.669Z,2.53
2022-07-30T03:52:09.085Z,2.42
2022-07-30T03:54:37.004Z,2.97
2022-07-30T03:57:22.751Z,3.05
2022-07-30T03:59:51.721Z,2.60
2022-07-30T04:02:20.173Z,3.55
2022-07-30T04:04:53.055Z,3.88
2022-07-30T04:07:20.169Z,4.10
2022-07-30T04:09:47.268Z,4.20
2022-07-30T04:12:37.333Z,4.60
2022-07-30T04:15:05.356Z,5.80
2022-07-30T04:17:58.016Z,6.05
2022-07-30T04:20:31.267Z,7.47
2022-07-30T04:22:59.132Z,7.55
2022-07-30T04:25:26.621Z,7.30
2022-07-30T04:28:03.253Z,7.93
2022-07-30T04:30:35.346Z,8.68
2022-07-30T04:33:03.695Z,8.48
2022-07-30T04:35:52.388Z,8.50
2022-07-30T04:38:36.893Z,8.55
2022-07-30T04:41:04.298Z,9.45
2022-07-30T04:43:47.613Z,10.13
2022-07-30T04:46:15.569Z,10.38
2022-07-30T04:48:43.799Z,10.88
2022-07-30T04:51:37.033Z,10.02
2022-07-30T04:54:06.918Z,10.57
2022-07-30T04:56:35.224Z,10.90
2022-07-30T04:59:03.214Z,10.68
2022-07-30T05:01:40.817Z,11.23
2022-07-30T05:04:10.608Z,11.05
2022-07-30T05:06:38.669Z,11.13
2022-07-30T05:09:06.254Z,10.45
2022-07-30T05:11:33.638Z,11.95
2022-07-30T05:14:01.030Z,11.18
2022-07-30T05:16:29.643Z,10.95
2022-07-30T05:21:29.710Z,10.95
2022-07-30T05:23:57.353Z,10.55
2022-07-30T05:26:33.550Z,10.23
2022-07-30T05:29:01.272Z,10.15
2022-07-30T05:31:43.592Z,9.35
2022-07-30T05:34:12.511Z,9.35
2022-07-30T05:36:45.086Z,9.48
2022-07-30T05:39:14.395Z,8.63
2022-07-30T05:42:12.038Z,8.23
2022-07-30T05:44:42.644Z,7.72
2022-07-30T05:47:09.825Z,7.13
2022-07-30T05:49:38.892Z,7.50
2022-07-30T05:52:09.481Z,6.40
2022-07-30T05:54:36.992Z,6.53
2022-07-30T05:57:12.929Z,6.10
2022-07-30T05:59:40.791Z,5.30
2022-07-30T06:02:18.150Z,4.68
2022-07-30T06:04:52.008Z,4.70
2022-07-30T06:07:19.479Z,4.53
2022-07-30T06:09:47.063Z,4.13
2022-07-30T06:12:14.641Z,3.95
2022-07-30T06:14:42.341Z,3.80
2022-07-30T06:17:13.362Z,3.45
2022-07-30T06:20:00.205Z,4.10
2022-07-30T06:22:28.164Z,3.92
2022-07-30T06:24:57.879Z,3.42
2022-07-30T06:27:31.285Z,3.63
2022-07-30T06:30:08.970Z,3.58
2022-07-30T06:32:36.679Z,3.08
2022-07-30T06:35:05.177Z,2.90
2022-07-30T06:38:00.559Z,2.92
2022-07-30T06:40:21.939Z,3.30
2022-07-30T06:43:13.449Z,3.17
2022-07-30T06:46:00.914Z,3.35
2022-07-30T06:48:34.161Z,2.75
2022-07-30T06:51:04.496Z,3.08
2022-07-30T06:53:32.736Z,3.13
2022-07-30T06:56:15.067Z,3.22
2022-07-30T06:58:49.589Z,3.08
2022-07-30T07:01:46.424Z,2.97
2022-07-30T07:04:13.858Z,3.22
2022-07-30T07:06:41.517Z,3.25
2022-07-30T07:09:10.304Z,3.00
2022-07-30T07:11:45.466Z,3.25
2022-07-30T07:14:16.147Z,3.25
2022-07-30T07:16:43.461Z,3.50
2022-07-30T07:20:01.470Z,3.83
2022-07-30T07:22:33.013Z,3.22
2022-07-30T07:25:00.135Z,3.55
2022-07-30T07:27:30.875Z,3.20
2022-07-30T07:30:01.875Z,3.50
2022-07-30T07:32:35.393Z,3.35
2022-07-30T07:35:04.890Z,3.47
2022-07-30T07:37:34.191Z,3.50
2022-07-30T07:40:01.742Z,3.15
2022-07-30T07:42:31.502Z,3.75
2022-07-30T07:44:58.618Z,3.33
2022-07-30T07:47:25.987Z,3.83
2022-07-30T07:50:07.753Z,3.75
2022-07-30T07:52:35.145Z,3.50
2022-07-30T07:55:02.829Z,3.92
2022-07-30T07:57:38.604Z,4.00
2022-07-30T08:00:07.004Z,3.55
2022-07-30T08:02:35.278Z,3.53
2022-07-30T08:05:07.894Z,3.65
2022-07-30T08:07:47.682Z,3.75
2022-07-30T08:10:33.476Z,3.60
2022-07-30T08:13:52.433Z,3.65
2022-07-30T08:16:15.373Z,3.80
2022-07-30T08:19:09.134Z,3.80
2022-07-30T08:21:42.205Z,4.10
2022-07-30T08:24:09.732Z,3.92
2022-07-30T08:26:37.297Z,4.10
2022-07-30T08:29:04.515Z,4.03
2022-07-30T08:31:31.613Z,4.28
2022-07-30T08:33:58.727Z,4.28
2022-07-30T08:36:26.840Z,4.28
2022-07-30T08:38:54.609Z,4.60
2022-07-30T08:41:22.743Z,4.40
2022-07-30T08:43:51.140Z,4.45
2022-07-30T08:46:25.126Z,3.90
2022-07-30T08:48:59.808Z,3.70
2022-07-30T08:51:35.472Z,3.70
2022-07-30T08:54:29.445Z,4.25
2022-07-30T08:56:58.580Z,4.30
2022-07-30T08:59:52.795Z,4.10
2022-07-30T09:02:14.049Z,4.20
2022-07-30T09:04:56.736Z,3.92
2022-07-30T09:07:24.080Z,4.30
2022-07-30T09:09:51.203Z,5.10
2022-07-30T09:12:44.425Z,4.70
2022-07-30T09:15:16.587Z,5.53
2022-07-30T09:17:55.301Z,5.65
2022-07-30T09:20:26.017Z,5.10
2022-07-30T09:22:56.617Z,5.05
2022-07-30T09:25:46.154Z,4.32
2022-07-30T09:28:34.438Z,4.40
2022-07-30T09:31:14.852Z,4.47
2022-07-30T09:34:00.919Z,4.18
2022-07-30T09:36:43.351Z,4.80
2022-07-30T09:39:59.215Z,4.90
2022-07-30T09:43:08.210Z,4.28
2022-07-30T09:45:57.121Z,3.83
2022-07-30T09:48:27.678Z,4.88
2022-07-30T09:50:57.342Z,4.38
2022-07-30T09:53:25.347Z,4.85
2022-07-30T09:55:52.992Z,4.90
2022-07-30T09:58:27.385Z,4.47
2022-07-30T10:00:59.079Z,4.03
2022-07-30T10:03:47.892Z,4.10
2022-07-30T10:06:35.701Z,3.60
2022-07-30T10:09:25.217Z,3.75
2022-07-30T10:11:57.093Z,3.67
2022-07-30T10:14:30.883Z,3.42
2022-07-30T10:17:02.954Z,3.13
2022-07-30T10:19:39.826Z,3.50
2022-07-30T10:22:48.133Z,3.20
2022-07-30T10:25:32.969Z,3.40
2022-07-30T10:28:25.443Z,3.28
2022-07-30T10:30:53.885Z,3.22
2022-07-30T10:33:37.581Z,3.00
2022-07-30T10:36:10.984Z,3.10
2022-07-30T10:38:41.420Z,3.17
2022-07-30T10:41:47.999Z,2.72
2022-07-30T10:44:48.421Z,2.90
2022-07-30T10:47:24.677Z,3.83
2022-07-30T10:50:12.042Z,3.20
2022-07-30T10:52:51.223Z,13.15
2022-07-30T10:55:37.003Z,4.10
2022-07-30T10:58:17.945Z,4.10
2022-07-30T11:00:53.571Z,4.28
2022-07-30T11:03:40.703Z,3.83
2022-07-30T11:06:14.977Z,4.00
2022-07-30T11:08:45.253Z,3.92
2022-07-30T11:11:37.014Z,4.00
2022-07-30T11:14:08.585Z,3.40
2022-07-30T11:16:35.615Z,3.53
2022-07-30T11:19:56.432Z,3.40
2022-07-30T11:22:31.327Z,3.60
2022-07-30T11:25:00.313Z,3.75
2022-07-30T11:27:45.649Z,3.80
2022-07-30T11:30:17.245Z,3.97
2022-07-30T11:33:16.562Z,3.28
2022-07-30T11:35:43.718Z,3.03
2022-07-30T11:38:18.866Z,3.60
2022-07-30T11:40:46.325Z,3.55
2022-07-30T11:43:19.549Z,3.15
2022-07-30T11:45:49.477Z,3.33
2022-07-30T11:48:18.509Z,3.42
2022-07-30T11:50:47.605Z,3.33
2022-07-30T11:53:23.591Z,3.38
2022-07-30T11:55:54.604Z,3.28
2022-07-30T11:58:27.968Z,3.38
2022-07-30T12:00:57.163Z,3.13
2022-07-30T12:03:26.631Z,2.90
2022-07-30T12:06:07.536Z,2.78
2022-07-30T12:08:42.237Z,2.90
2022-07-30T12:11:10.532Z,3.17
2022-07-30T12:13:43.969Z,2.80
2022-07-30T12:16:13.827Z,3.03
2022-07-30T12:18:40.999Z,3.20
2022-07-30T12:21:12.738Z,3.20
2022-07-30T12:23:42.011Z,3.03
2022-07-30T12:26:20.597Z,3.08
2022-07-30T12:28:48.118Z,3.08
2022-07-30T12:31:16.827Z,2.85
2022-07-30T12:33:44.004Z,3.47
2022-07-30T12:36:24.089Z,4.20
2022-07-30T12:38:52.783Z,3.10
2022-07-30T12:41:20.481Z,3.13
2022-07-30T12:43:49.685Z,3.10
2022-07-30T12:46:22.229Z,3.15
2022-07-30T12:49:21.476Z,3.65
2022-07-30T12:51:52.570Z,2.83
2022-07-30T12:54:27.953Z,3.05
2022-07-30T12:57:05.230Z,3.65
2022-07-30T12:59:33.824Z,3.30
2022-07-30T13:02:01.298Z,3.47
2022-07-30T13:04:29.218Z,3.58
2022-07-30T13:07:06.553Z,2.90
2022-07-30T13:09:34.075Z,2.65
2022-07-30T13:12:01.414Z,3.30
2022-07-30T13:14:28.489Z,3.10
2022-07-30T13:16:56.843Z,2.65
2022-07-30T13:19:25.782Z,3.15
2022-07-30T13:21:55.702Z,3.35
2022-07-30T13:24:22.852Z,2.75
2022-07-30T13:26:50.585Z,2.85
2022-07-30T13:29:18.151Z,2.60
2022-07-30T13:31:45.577Z,3.05
2022-07-30T13:34:13.078Z,3.10
2022-07-30T13:36:40.210Z,3.28
2022-07-30T13:39:07.398Z,3.88
2022-07-30T13:41:36.304Z,3.15
2022-07-30T13:44:06.170Z,3.30
2022-07-30T13:46:33.712Z,3.20
2022-07-30T13:49:01.060Z,2.80
2022-07-30T13:51:28.385Z,3.00
2022-07-30T13:53:55.545Z,2.72
2022-07-30T13:56:22.631Z,3.25
2022-07-30T13:58:50.350Z,3.35
2022-07-30T14:01:18.509Z,3.10
2022-07-30T14:03:50.678Z,3.20
2022-07-30T14:06:21.152Z,2.80
2022-07-30T14:08:48.461Z,2.78
2022-07-30T14:11:16.212Z,2.90
2022-07-30T14:13:43.724Z,2.97
2022-07-30T14:16:28.867Z,2.60
2022-07-30T14:18:58.308Z,2.67
2022-07-30T14:21:25.933Z,2.95
2022-07-30T14:23:53.240Z,2.92
2022-07-30T14:26:23.194Z,2.83
2022-07-30T14:28:50.372Z,2.30
2022-07-30T14:31:17.515Z,2.85
2022-07-30T14:33:44.771Z,2.65
2022-07-30T14:36:11.995Z,2.70
2022-07-30T14:38:39.874Z,5.10
2022-07-30T14:41:08.870Z,2.45
2022-07-30T14:43:36.238Z,2.42
2022-07-30T14:46:05.872Z,2.22
2022-07-30T14:48:33.063Z,2.60
2022-07-30T14:51:14.717Z,2.40
2022-07-30T14:53:47.096Z,2.30
2022-07-30T14:56:14.651Z,2.63
2022-07-30T14:58:45.538Z,2.45
2022-07-30T15:01:15.679Z,2.20
2022-07-30T15:03:46.202Z,3.08
2022-07-30T15:06:15.426Z,2.67
2022-07-30T15:08:43.225Z,2.00
2022-07-30T15:11:10.494Z,2.13
2022-07-30T15:13:38.649Z,2.33
2022-07-30T15:16:19.065Z,2.38
2022-07-30T15:18:46.618Z,2.30
2022-07-30T15:21:14.311Z,2.42
2022-07-30T15:23:41.776Z,2.72
2022-07-30T15:26:09.038Z,2.92
2022-07-30T15:28:36.273Z,2.50
2022-07-30T15:31:03.556Z,2.33
2022-07-30T15:33:30.814Z,2.10
2022-07-30T15:36:04.468Z,2.78
2022-07-30T15:38:31.576Z,2.60
2022-07-30T15:40:58.758Z,2.30
2022-07-30T15:43:25.851Z,2.10
2022-07-30T15:45:56.372Z,2.50
2022-07-30T15:48:27.242Z,2.70
2022-07-30T15:51:02.772Z,3.00
2022-07-30T15:53:31.172Z,2.92
2022-07-30T15:55:59.469Z,2.75
2022-07-30T15:58:27.124Z,3.10
2022-07-30T16:00:54.431Z,2.83
2022-07-30T16:03:21.822Z,2.85
2022-07-30T16:05:51.252Z,3.15
2022-07-30T16:08:21.382Z,2.88
2022-07-30T16:10:49.140Z,2.40
2022-07-30T16:13:16.225Z,2.30
2022-07-30T16:15:46.271Z,2.25
2022-07-30T16:18:13.381Z,1.90
2022-07-30T16:20:40.493Z,2.13
2022-07-30T16:23:13.147Z,2.17
2022-07-30T16:25:42.125Z,2.42
2022-07-30T16:28:09.250Z,2.10
2022-07-30T16:30:36.367Z,2.20
2022-07-30T16:33:17.875Z,4.35
2022-07-30T16:35:49.272Z,3.90
2022-07-30T16:38:23.129Z,2.95
2022-07-30T16:40:50.633Z,2.70
2022-07-30T16:43:19.574Z,2.20
2022-07-30T16:45:47.566Z,2.20
2022-07-30T16:48:14.889Z,2.40
2022-07-30T16:50:42.576Z,2.30
2022-07-30T16:53:13.835Z,2.70
2022-07-30T16:55:45.588Z,2.72
2022-07-30T16:58:12.936Z,3.08
2022-07-30T17:00:40.683Z,3.05
2022-07-30T17:03:07.998Z,3.30
2022-07-30T17:05:35.252Z,3.08
2022-07-30T17:08:05.499Z,2.80
2022-07-30T17:10:32.821Z,2.72
2022-07-30T17:12:59.973Z,2.50
2022-07-30T17:15:32.423Z,2.30
2022-07-30T17:18:01.882Z,2.60
2022-07-30T17:20:30.017Z,2.35
2022-07-30T17:22:57.550Z,2.58
2022-07-30T17:25:28.433Z,2.45
2022-07-30T17:27:57.491Z,2.45
2022-07-30T17:30:25.989Z,2.42
2022-07-30T17:32:53.345Z,2.63
2022-07-30T17:35:20.615Z,2.33
2022-07-30T17:37:47.743Z,2.92
2022-07-30T17:40:28.370Z,4.18
2022-07-30T17:43:06.009Z,6.88
2022-07-30T17:45:34.703Z,6.68
2022-07-30T17:48:03.037Z,5.70
2022-07-30T17:50:32.133Z,3.50
2022-07-30T17:53:00.286Z,3.08
2022-07-30T17:55:31.572Z,2.78
2022-07-30T17:57:58.710Z,3.20
2022-07-30T18:00:26.015Z,2.58
2022-07-30T18:02:53.317Z,30.90
2022-07-30T18:05:20.421Z,7.30
2022-07-30T18:07:47.547Z,6.63
2022-07-30T18:10:15.041Z,6.50
2022-07-30T18:12:48.889Z,4.07
2022-07-30T18:15:19.466Z,3.47
2022-07-30T18:17:46.864Z,3.22
2022-07-30T18:20:15.210Z,2.80
2022-07-30T18:22:42.981Z,2.90
2022-07-30T18:25:18.827Z,3.00
2022-07-30T18:27:47.984Z,3.05
2022-07-30T18:30:15.737Z,3.45
2022-07-30T18:32:44.402Z,2.90
2022-07-30T18:35:14.527Z,2.60
2022-07-30T18:37:43.528Z,2.50
2022-07-30T18:40:14.813Z,2.50
2022-07-30T18:42:42.252Z,2.80
2022-07-30T18:45:13.587Z,2.50
2022-07-30T18:47:45.439Z,2.35
2022-07-30T18:50:14.489Z,3.38
2022-07-30T18:52:42.169Z,4.22
2022-07-30T18:55:12.075Z,3.40
2022-07-30T18:57:40.698Z,2.92
2022-07-30T19:00:34.708Z,2.20
2022-07-30T19:03:01.417Z,2.50
2022-07-30T19:05:28.769Z,2.17
2022-07-30T19:07:58.025Z,2.70
2022-07-30T19:10:27.160Z,2.58
2022-07-30T19:12:55.410Z,2.50
2022-07-30T19:15:22.705Z,2.58
2022-07-30T19:17:51.221Z,2.50
2022-07-30T19:20:23.201Z,3.00
2022-07-30T19:22:51.188Z,2.45
2022-07-30T19:25:19.449Z,2.40
2022-07-30T19:27:46.866Z,2.53
2022-07-30T19:30:14.440Z,2.33
2022-07-30T19:32:41.566Z,2.70
2022-07-30T19:35:10.304Z,2.45
2022-07-30T19:37:41.779Z,2.38
2022-07-30T19:40:09.633Z,3.13
2022-07-30T19:42:36.868Z,3.03
2022-07-30T19:45:11.492Z,2.70
2022-07-30T19:47:39.850Z,2.90
2022-07-30T19:50:11.193Z,2.80
2022-07-30T19:52:40.570Z,3.40
2022-07-30T19:55:30.974Z,3.60
2022-07-30T19:58:04.482Z,3.50
2022-07-30T20:00:31.672Z,3.53
2022-07-30T20:03:03.046Z,3.75
2022-07-30T20:05:31.869Z,4.68
2022-07-30T20:08:24.818Z,4.00
2022-07-30T20:10:52.457Z,4.40
2022-07-30T20:13:19.650Z,4.07
2022-07-30T20:15:49.644Z,4.22
2022-07-30T20:18:29.293Z,4.47
2022-07-30T20:20:57.667Z,4.28
2022-07-30T20:23:25.065Z,4.55
2022-07-30T20:25:52.626Z,4.65
2022-07-30T20:28:21.551Z,5.05
2022-07-30T20:30:49.604Z,5.22
2022-07-30T20:33:16.796Z,5.53
2022-07-30T20:36:00.365Z,4.85
2022-07-30T20:38:29.474Z,6.00
2022-07-30T20:40:57.051Z,5.47
2022-07-30T20:43:24.162Z,6.20
2022-07-30T20:45:54.651Z,8.20
2022-07-30T20:51:09.503Z,9.25
2022-07-30T20:53:36.867Z,8.55
2022-07-30T20:56:04.377Z,9.50
2022-07-30T20:58:31.511Z,9.63
2022-07-30T21:01:00.888Z,10.13
2022-07-30T21:03:31.969Z,10.23
2022-07-30T21:05:59.318Z,10.45
2022-07-30T21:08:27.147Z,11.20
2022-07-30T21:10:55.161Z,10.57
2022-07-30T21:13:25.089Z,10.48
2022-07-30T21:16:03.121Z,10.98
2022-07-30T21:18:31.985Z,11.07
2022-07-30T21:21:01.204Z,12.55
2022-07-30T21:23:32.179Z,11.93
2022-07-30T21:26:01.092Z,12.65
2022-07-30T21:28:35.157Z,12.18
2022-07-30T21:31:07.187Z,13.32
2022-07-30T21:33:36.519Z,12.68
2022-07-30T21:36:05.234Z,17.08
2022-07-30T21:38:41.899Z,15.98
2022-07-30T21:41:13.888Z,13.73
2022-07-30T21:43:43.929Z,12.82
2022-07-30T21:46:12.106Z,12.55
2022-07-30T21:48:39.995Z,13.23
2022-07-30T21:51:08.577Z,12.30
2022-07-30T21:53:44.550Z,13.05
2022-07-30T21:56:13.529Z,12.25
2022-07-30T21:58:41.752Z,11.95
2022-07-30T22:04:04.536Z,13.35
2022-07-30T22:06:40.505Z,12.35
2022-07-30T22:09:26.315Z,12.02
2022-07-30T22:12:01.455Z,12.38
2022-07-30T22:14:29.289Z,12.90
2022-07-30T22:16:56.890Z,13.68
2022-07-30T22:19:25.872Z,12.63
2022-07-30T22:21:53.250Z,14.02
2022-07-30T22:24:29.215Z,14.40
2022-07-30T22:27:01.314Z,13.70
2022-07-30T22:29:34.570Z,13.90
2022-07-30T22:32:04.014Z,14.45
2022-07-30T22:34:32.467Z,13.43
2022-07-30T22:36:59.551Z,14.20
2022-07-30T22:39:31.643Z,13.88
2022-07-30T22:42:00.917Z,12.63
2022-07-30T22:44:28.554Z,13.63
2022-07-30T22:46:56.154Z,13.77
2022-07-30T22:49:45.347Z,13.02
2022-07-30T22:52:19.415Z,13.18
2022-07-30T22:54:58.702Z,11.68
2022-07-30T22:57:29.364Z,10.70
2022-07-30T23:00:12.227Z,11.93
2022-07-30T23:02:40.236Z,11.98
2022-07-30T23:05:09.046Z,10.10
2022-07-30T23:07:39.513Z,9.88
2022-07-30T23:10:17.168Z,10.38
2022-07-30T23:12:19.226Z,8.93
2022-07-30T23:12:32.485Z,12.23
2022-07-30T23:12:48.043Z,8.45
2022-07-30T23:15:15.402Z,7.90
2022-07-30T23:17:43.631Z,8.25
2022-07-30T23:20:16.863Z,7.95
2022-07-30T23:22:44.097Z,7.38
2022-07-30T23:25:12.468Z,7.28
2022-07-30T23:27:40.156Z,7.78
2022-07-30T23:30:08.462Z,6.97
2022-07-30T23:32:36.630Z,6.35
2022-07-30T23:35:04.793Z,7.18
2022-07-30T23:37:47.785Z,6.50
2022-07-30T23:40:18.554Z,7.00
2022-07-30T23:42:47.244Z,6.90
2022-07-30T23:45:14.524Z,6.28
2022-07-30T23:48:01.089Z,9.27
2022-07-30T23:50:33.209Z,9.00
2022-07-30T23:53:01.541Z,9.55
2022-07-30T23:55:30.508Z,9.07
2022-07-30T23:57:58.400Z,8.55
